Fort Loudoun Observed Data For Previous 48 Hours

Caption
Day and Hour Reservoir Elevation (behind dam)* Tailwater Elevation (below dam)* Average Hourly Discharge*
6/20/2018 2 AM EDT 812.67 740.29 4,838
6/20/2018 3 AM EDT 812.68 740.62 4,823
6/20/2018 4 AM EDT 812.71 740.66 4,811
6/20/2018 5 AM EDT 812.77 740.56 4,802
6/20/2018 6 AM EDT 812.83 740.55 4,831
6/20/2018 7 AM EDT 812.88 740.54 4,835
6/20/2018 8 AM EDT 812.93 740.47 4,812
6/20/2018 9 AM EDT 812.98 740.48 4,855
6/20/2018 10 AM EDT 813.01 740.81 10,276
6/20/2018 11 AM EDT 813.02 741.26 16,122
6/20/2018 12 PM EDT 813.01 741.76 22,224
6/20/2018 1 PM EDT 813.02 741.94 22,848
6/20/2018 2 PM EDT 812.97 742.36 28,807
6/20/2018 3 PM EDT 812.94 742.40 28,846
6/20/2018 4 PM EDT 812.89 742.42 28,943
6/20/2018 5 PM EDT 812.84 742.45 28,992
6/20/2018 6 PM EDT 812.80 742.41 29,047
6/20/2018 7 PM EDT 812.76 742.44 28,962
6/20/2018 8 PM EDT 812.74 742.38 28,996
6/20/2018 9 PM EDT 812.72 742.08 27,618
6/20/2018 10 PM EDT 812.73 741.68 22,363
6/20/2018 11 PM EDT 812.72 741.09 19,966
6/21/2018 12 AM EDT 812.72 740.84 16,267
6/21/2018 1 AM EDT 812.72 740.53 10,651
6/21/2018 2 AM EDT 812.75 740.33 5,120
6/21/2018 3 AM EDT 812.76 740.38 4,819
6/21/2018 4 AM EDT 812.79 740.52 4,844
6/21/2018 5 AM EDT 812.82 740.50 4,843
6/21/2018 6 AM EDT 812.85 740.44 4,836
6/21/2018 7 AM EDT 812.88 740.52 4,839
6/21/2018 8 AM EDT 812.91 740.53 4,812
6/21/2018 9 AM EDT 812.96 740.43 4,850
6/21/2018 10 AM EDT 812.96 740.78 10,230
6/21/2018 11 AM EDT 812.96 741.16 14,462
6/21/2018 12 PM EDT 812.97 741.58 17,367
6/21/2018 1 PM EDT 813.25 741.94 22,987
6/21/2018 2 PM EDT 813.15 742.35 28,809
6/21/2018 3 PM EDT 813.12 742.43 29,006
6/21/2018 4 PM EDT 812.98 742.45 28,943
6/21/2018 5 PM EDT 812.90 742.35 29,018
6/21/2018 6 PM EDT 812.85 742.31 29,035
6/21/2018 7 PM EDT 812.81 742.35 28,840
6/21/2018 8 PM EDT 812.78 742.26 28,870
6/21/2018 9 PM EDT 812.76 742.24 28,944
6/21/2018 10 PM EDT 812.74 742.22 28,859
6/21/2018 11 PM EDT 812.77 741.24 20,677
6/22/2018 12 AM EDT 812.77 740.96 16,279
6/22/2018 1 AM EDT 812.76 740.49 10,697

Elevations are in feet above sea level. Discharges are in cubic feet per second and are reported at the end of the hour.